»·PEaware :: N6515D KSNA-KVCV

N6515D :: KSNA-KVCV

FLIGHT INFORMATION

Flight Status: Arrived
Operator: Privately registered:
United States
More flights under this callsign
Pilot: Charles S. (11412)
Aircraft: Unknown
(DA62)
More flights by this aircraft type
Origin: KSNA John Wayne-Orange Co
United States
Destination: KVCV Socal Logistics
United States
More flights between these airports :: More routes between these airports
Route: +SLI V8 PDZ V442 APLES
File this flight plan on PilotEdge
Remarks:
Altitude:
(Current/Filed)
9,000ft
Speed:
(Current/Filed)
170kts
Departed: 23-May-18 12:43 PM
Arrived: 23-May-18 01:23 PM
Distance/Time
Traveled:
60nm/0:40
Distance/Time
To Go:
Arrived

Flight Plot

Page will automatically refresh every two minutes.


Map Options




Map Legend


Flown Route
Filed Route
Departure Airport
Arrival Airport
Navaid (VOR, NDB)
Fix

Horizontal Profiles

Position Reports

Time Latitude Longitude Heading Altitude Ground
Speed
23-May-18 12:33 33.671879 -117.867015 205 60ft 0kts
23-May-18 12:34 33.671879 -117.867015 205 60ft 0kts
23-May-18 12:35 33.671879 -117.867015 205 60ft 0kts
23-May-18 12:36 33.671879 -117.867015 205 60ft 0kts
23-May-18 12:37 33.671879 -117.867015 205 60ft 0kts
23-May-18 12:38 33.671879 -117.867015 205 60ft 0kts
23-May-18 12:39 33.671879 -117.867015 205 60ft 0kts
23-May-18 12:40 33.671809 -117.867110 260 60ft 4kts
23-May-18 12:41 33.674175 -117.867020 27 60ft 14kts
23-May-18 12:42 33.679078 -117.863922 28 60ft 22kts
23-May-18 12:43 33.674730 -117.867569 207 71ft 87kts
23-May-18 12:44 33.654386 -117.888711 231 830ft 118kts
23-May-18 12:45 33.632374 -117.921703 231 1651ft 132kts
23-May-18 12:46 33.611271 -117.958021 269 2340ft 137kts
23-May-18 12:47 33.641229 -117.966583 21 3021ft 141kts
23-May-18 12:48 33.669884 -117.943626 34 3632ft 142kts
23-May-18 12:49 33.699387 -117.917861 34 4277ft 142kts
23-May-18 12:50 33.726036 -117.894554 34 4858ft 143kts
23-May-18 12:51 33.747299 -117.875944 34 5320ft 143kts
23-May-18 12:52 33.766279 -117.859321 34 5731ft 143kts
23-May-18 12:53 33.785354 -117.842615 34 6007ft 152kts
23-May-18 12:54 33.808446 -117.822365 34 6013ft 168kts
23-May-18 12:55 33.831908 -117.801768 34 6011ft 174kts
23-May-18 12:56 33.852808 -117.782015 54 5988ft 178kts
23-May-18 12:57 33.859149 -117.761016 72 6067ft 174kts
23-May-18 12:58 33.867674 -117.727207 72 6492ft 160kts
23-May-18 12:59 33.876039 -117.694787 72 6934ft 155kts
23-May-18 13:00 33.884661 -117.661405 72 7407ft 152kts
23-May-18 13:01 33.894209 -117.624386 73 7941ft 152kts
23-May-18 13:02 33.904632 -117.583895 73 8527ft 152kts
23-May-18 13:03 33.916003 -117.539759 72 9009ft 161kts
23-May-18 13:04 33.954068 -117.509025 25 9011ft 181kts
23-May-18 13:05 33.999699 -117.481440 25 9008ft 184kts
23-May-18 13:06 34.045645 -117.453836 25 9007ft 185kts
23-May-18 13:07 34.091474 -117.426274 25 9007ft 185kts
23-May-18 13:08 34.135735 -117.399556 25 9008ft 185kts
23-May-18 13:09 34.180971 -117.372273 25 9008ft 185kts
23-May-18 13:10 34.219602 -117.348973 25 9009ft 185kts
23-May-18 13:11 34.257689 -117.325971 25 9005ft 185kts
23-May-18 13:12 34.297800 -117.301724 25 8997ft 185kts
23-May-18 13:13 34.343049 -117.274338 25 8990ft 184kts
23-May-18 13:14 34.387741 -117.247256 25 8986ft 184kts
23-May-18 13:15 34.433121 -117.219746 25 9015ft 183kts
23-May-18 13:16 34.482863 -117.219131 351 8069ft 181kts
23-May-18 13:17 34.531950 -117.226480 351 8023ft 178kts
23-May-18 13:18 34.580711 -117.233655 351 7678ft 171kts
23-May-18 13:19 34.622547 -117.256721 312 5796ft 170kts
23-May-18 13:20 34.637142 -117.308144 257 4313ft 134kts
23-May-18 13:21 34.623487 -117.338796 225 3522ft 94kts
23-May-18 13:22 34.604003 -117.362345 224 2995ft 98kts
23-May-18 13:23 34.590424 -117.378299 178 2867ft 23kts
23-May-18 13:24 34.589000 -117.374504 226 2868ft 0kts
23-May-18 13:25 34.589000 -117.374504 226 2868ft 0kts
23-May-18 13:26 34.589000 -117.374504 226 2868ft 0kts
23-May-18 13:27 34.589000 -117.374504 226 2868ft 0kts
23-May-18 13:28 34.589000 -117.374504 226 2868ft 0kts
23-May-18 13:29 34.589000 -117.374504 226 2868ft 0kts
23-May-18 13:30 34.589000 -117.374504 226 2868ft 0kts
23-May-18 13:31 34.589000 -117.374504 226 2868ft 0kts
23-May-18 13:32 34.589000 -117.374504 226 2868ft 0kts

Navigation Log

Ident Type
1. KSNA Airport
2. SLI Navaid
3. AHEIM Fix
4. OLLIE Fix
5. POXKU Fix
6. EBITE Fix
7. PDZ Navaid
8. APLES Fix
9. KVCV Airport